Language: 


Des rapports , des résumés tant et plus, au choix de chacun....


Données Historiques de Météogheer
Journalier Rapport pour Janvier 14, 2018 Unitée:  Les deux    Impériale   Métrique
Suivant Jour »
Journalier Hebdomadaire Mensuel Annuel Sur mesure
  Max: Min: Moyenne:
Température: 44.4 °F /  6.9 °C 32.5 °F /  0.3 °C 36.5 °F /  2.5 °C
Point de rosée: 41 °F /  5.0 °C 33.8 °F /  1.0 °C 35.8 °F /  2.1 °C
Humidité: 98% 83% 95%
Vent: 6mph /  9.7km/h - 1.6mph /  2.5km/h
Rafales: 7.6mph /  12.2km/h - -
Vent- - East
Pression: 30.1 in /  1018.2 hPa 30 in /  1016.1 hPa -
Pluie: 0 in /  0.0 mm    
Historical Graphs
 
 
Données tabulaires pour Janvier 14, 2018
Heure Température Point de rosée Pression Vent Vent Rafales Humidité Pluie Taux (Horaire) Conditions
00:20 37.2 °F /  2.9 °C 35.6 °F /  2.0 °C 30.1in /  1018.2hPa ENE 6mph /  9.7km/h 7.4mph /  11.9km/h 93% 0in /  0.0mm
00:26 37.2 °F /  2.9 °C 35.6 °F /  2.0 °C 30.1in /  1018.2hPa NE 4.9mph /  7.9km/h 7.4mph /  11.9km/h 94% 0in /  0.0mm
00:32 37 °F /  2.8 °C 35.6 °F /  2.0 °C 30.1in /  1018.2hPa NE 4.7mph /  7.6km/h 7.2mph /  11.6km/h 94% 0in /  0.0mm
00:51 36.3 °F /  2.4 °C 35.6 °F /  2.0 °C 30.1in /  1018.2hPa ENE 4.7mph /  7.6km/h 6.5mph /  10.5km/h 93% 0in /  0.0mm
01:11 36 °F /  2.2 °C 35.6 °F /  2.0 °C 30.1in /  1018.2hPa NE 5.4mph /  8.7km/h 6.3mph /  10.1km/h 95% 0in /  0.0mm
01:20 35.8 °F /  2.1 °C 35.6 °F /  2.0 °C 30.1in /  1018.2hPa NE 4.9mph /  7.9km/h 6mph /  9.7km/h 95% 0in /  0.0mm
01:42 35.6 °F /  2.0 °C 35.6 °F /  2.0 °C 30in /  1016.8hPa ENE 4.5mph /  7.2km/h 5.6mph /  9.0km/h 95% 0in /  0.0mm
01:47 35.4 °F /  1.9 °C 35.6 °F /  2.0 °C 30in /  1016.8hPa East 5.6mph /  9.0km/h 5.6mph /  9.0km/h 96% 0in /  0.0mm
01:52 35.4 °F /  1.9 °C 35.6 °F /  2.0 °C 30in /  1016.8hPa Calm   5.8mph /  9.3km/h 96% 0in /  0.0mm
01:58 35.2 °F /  1.8 °C 33.8 °F /  1.0 °C 30in /  1016.8hPa ENE 5.4mph /  8.7km/h 5.6mph /  9.0km/h 96% 0in /  0.0mm
02:11 35.2 °F /  1.8 °C 33.8 °F /  1.0 °C 30in /  1016.8hPa ENE 5.4mph /  8.7km/h 6mph /  9.7km/h 97% 0in /  0.0mm
02:17 35.2 °F /  1.8 °C 33.8 °F /  1.0 °C 30in /  1016.8hPa ENE 4.9mph /  7.9km/h 6mph /  9.7km/h 97% 0in /  0.0mm
02:32 35.2 °F /  1.8 °C 35.6 °F /  2.0 °C 30in /  1016.8hPa ENE 4.3mph /  6.9km/h 6.5mph /  10.5km/h 98% 0in /  0.0mm
02:40 35.1 °F /  1.7 °C 35.6 °F /  2.0 °C 30in /  1016.8hPa NE 4.7mph /  7.6km/h 6.5mph /  10.5km/h 98% 0in /  0.0mm
02:49 34.9 °F /  1.6 °C 35.6 °F /  2.0 °C 30in /  1016.8hPa Calm   6mph /  9.7km/h 98% 0in /  0.0mm
02:55 34.9 °F /  1.6 °C 35.6 °F /  2.0 °C 30in /  1016.8hPa NE 4.7mph /  7.6km/h 5.4mph /  8.7km/h 98% 0in /  0.0mm
03:00 34.7 °F /  1.5 °C 35.6 °F /  2.0 °C 30in /  1016.8hPa NE 4.7mph /  7.6km/h 5.4mph /  8.7km/h 98% 0in /  0.0mm
03:18 34.2 °F /  1.2 °C 33.8 °F /  1.0 °C 30in /  1016.8hPa NNE 2.5mph /  4.0km/h 4.7mph /  7.6km/h 98% 0in /  0.0mm
03:23 34.2 °F /  1.2 °C 33.8 °F /  1.0 °C 30in /  1016.8hPa Calm   5.6mph /  9.0km/h 98% 0in /  0.0mm
03:36 34 °F /  1.1 °C 33.8 °F /  1.0 °C 30in /  1016.8hPa NE 2.9mph /  4.7km/h 5.4mph /  8.7km/h 98% 0in /  0.0mm
03:44 33.8 °F /  1.0 °C 33.8 °F /  1.0 °C 30in /  1016.8hPa NE 5.6mph /  9.0km/h 6mph /  9.7km/h 98% 0in /  0.0mm
03:53 33.8 °F /  1.0 °C 33.8 °F /  1.0 °C 30in /  1016.8hPa NE 4.9mph /  7.9km/h 6.9mph /  11.1km/h 98% 0in /  0.0mm
03:58 33.8 °F /  1.0 °C 33.8 °F /  1.0 °C 30in /  1016.1hPa NE 2.5mph /  4.0km/h 6.9mph /  11.1km/h 98% 0in /  0.0mm
04:16 33.6 °F /  0.9 °C 33.8 °F /  1.0 °C 30in /  1016.8hPa Calm   6mph /  9.7km/h 98% 0in /  0.0mm
04:28 33.6 °F /  0.9 °C 33.8 °F /  1.0 °C 30in /  1016.8hPa Calm   5.6mph /  9.0km/h 98% 0in /  0.0mm
04:35 33.6 °F /  0.9 °C 33.8 °F /  1.0 °C 30in /  1016.8hPa NNW 4.7mph /  7.6km/h 6.3mph /  10.1km/h 98% 0in /  0.0mm
04:42 33.4 °F /  0.8 °C 33.8 °F /  1.0 °C 30in /  1016.8hPa NE 4.9mph /  7.9km/h 6.3mph /  10.1km/h 98% 0in /  0.0mm
04:49 33.4 °F /  0.8 °C 33.8 °F /  1.0 °C 30in /  1016.8hPa NE 4.9mph /  7.9km/h 6mph /  9.7km/h 98% 0in /  0.0mm
04:57 33.4 °F /  0.8 °C 33.8 °F /  1.0 °C 30in /  1016.8hPa NE 2.7mph /  4.3km/h 5.6mph /  9.0km/h 98% 0in /  0.0mm
05:02 33.3 °F /  0.7 °C 33.8 °F /  1.0 °C 30in /  1016.8hPa NNE 4mph /  6.4km/h 5.4mph /  8.7km/h 98% 0in /  0.0mm
05:08 33.1 °F /  0.6 °C 33.8 °F /  1.0 °C 30in /  1016.8hPa NNE 3.4mph /  5.5km/h 4.5mph /  7.2km/h 98% 0in /  0.0mm
05:13 33.1 °F /  0.6 °C 33.8 °F /  1.0 °C 30in /  1016.1hPa NE 3.1mph /  5.0km/h 4mph /  6.4km/h 98% 0in /  0.0mm
05:25 32.9 °F /  0.5 °C 33.8 °F /  1.0 °C 30in /  1016.1hPa NNE 3.4mph /  5.5km/h 3.6mph /  5.8km/h 98% 0in /  0.0mm
05:35 32.9 °F /  0.5 °C 33.8 °F /  1.0 °C 30.1in /  1018.2hPa NE 1.1mph /  1.8km/h 4mph /  6.4km/h 98% 0in /  0.0mm
05:42 33.1 °F /  0.6 °C 33.8 °F /  1.0 °C 30in /  1016.8hPa NE 3.6mph /  5.8km/h 3.8mph /  6.1km/h 98% 0in /  0.0mm
05:48 33.1 °F /  0.6 °C 33.8 °F /  1.0 °C 30in /  1016.8hPa NNE 3.6mph /  5.8km/h 3.8mph /  6.1km/h 98% 0in /  0.0mm
05:54 32.9 °F /  0.5 °C 33.8 °F /  1.0 °C 30in /  1016.8hPa NNE 2.5mph /  4.0km/h 4mph /  6.4km/h 98% 0in /  0.0mm
05:59 32.9 °F /  0.5 °C 33.8 °F /  1.0 °C 30in /  1016.8hPa NNE 3.6mph /  5.8km/h 4mph /  6.4km/h 98% 0in /  0.0mm
06:06 32.9 °F /  0.5 °C 33.8 °F /  1.0 °C 30in /  1016.8hPa North 4.5mph /  7.2km/h 4.9mph /  7.9km/h 98% 0in /  0.0mm
06:11 32.9 °F /  0.5 °C 33.8 °F /  1.0 °C 30in /  1016.8hPa NE 1.1mph /  1.8km/h 5.6mph /  9.0km/h 98% 0in /  0.0mm
06:16 32.9 °F /  0.5 °C 33.8 °F /  1.0 °C 30in /  1016.8hPa NNW 3.6mph /  5.8km/h 5.6mph /  9.0km/h 98% 0in /  0.0mm
06:25 32.7 °F /  0.4 °C 33.8 °F /  1.0 °C 30in /  1016.8hPa NNE 2.7mph /  4.3km/h 4.5mph /  7.2km/h 98% 0in /  0.0mm
06:31 32.7 °F /  0.4 °C 33.8 °F /  1.0 °C 30in /  1016.8hPa Calm   5.4mph /  8.7km/h 98% 0in /  0.0mm
06:37 32.7 °F /  0.4 °C 33.8 °F /  1.0 °C 30in /  1016.8hPa NE 4.3mph /  6.9km/h 4.3mph /  6.9km/h 98% 0in /  0.0mm
06:42 32.7 °F /  0.4 °C 33.8 °F /  1.0 °C 30in /  1016.8hPa NNE 4mph /  6.4km/h 4.3mph /  6.9km/h 98% 0in /  0.0mm
07:00 32.7 °F /  0.4 °C 33.8 °F /  1.0 °C 30in /  1016.8hPa Calm   4mph /  6.4km/h 98% 0in /  0.0mm
07:11 32.7 °F /  0.4 °C 33.8 °F /  1.0 °C 30.1in /  1018.2hPa NNE 3.8mph /  6.1km/h 4.3mph /  6.9km/h 98% 0in /  0.0mm
07:19 32.7 °F /  0.4 °C 33.8 °F /  1.0 °C 30.1in /  1018.2hPa North 2.5mph /  4.0km/h 4mph /  6.4km/h 98% 0in /  0.0mm
07:28 32.5 °F /  0.3 °C 33.8 °F /  1.0 °C 30in /  1016.8hPa Calm   4.7mph /  7.6km/h 98% 0in /  0.0mm
07:41 32.7 °F /  0.4 °C 33.8 °F /  1.0 °C 30in /  1016.8hPa NE 2.9mph /  4.7km/h 4mph /  6.4km/h 98% 0in /  0.0mm
07:46 32.7 °F /  0.4 °C 33.8 °F /  1.0 °C 30in /  1016.8hPa NNE 2.5mph /  4.0km/h 3.8mph /  6.1km/h 98% 0in /  0.0mm
07:56 32.7 °F /  0.4 °C 33.8 °F /  1.0 °C 30in /  1016.8hPa Calm   3.8mph /  6.1km/h 98% 0in /  0.0mm
08:11 32.7 °F /  0.4 °C 33.8 °F /  1.0 °C 30in /  1016.8hPa NNE 3.6mph /  5.8km/h 4.5mph /  7.2km/h 98% 0in /  0.0mm
08:17 32.7 °F /  0.4 °C 33.8 °F /  1.0 °C 30in /  1016.8hPa NNE 2.7mph /  4.3km/h 4.5mph /  7.2km/h 98% 0in /  0.0mm
08:22 32.9 °F /  0.5 °C 33.8 °F /  1.0 °C 30in /  1016.8hPa North 4mph /  6.4km/h 5.6mph /  9.0km/h 98% 0in /  0.0mm
08:29 32.7 °F /  0.4 °C 33.8 °F /  1.0 °C 30in /  1016.8hPa NE 2.7mph /  4.3km/h 5.4mph /  8.7km/h 98% 0in /  0.0mm
08:39 32.7 °F /  0.4 °C 33.8 °F /  1.0 °C 30in /  1016.8hPa Calm   3.4mph /  5.5km/h 98% 0in /  0.0mm
08:44 32.7 °F /  0.4 °C 33.8 °F /  1.0 °C 30in /  1016.1hPa Calm   3.4mph /  5.5km/h 98% 0in /  0.0mm
08:56 32.7 °F /  0.4 °C 33.8 °F /  1.0 °C 30in /  1016.8hPa Calm     98% 0in /  0.0mm
09:18 33.3 °F /  0.7 °C 33.8 °F /  1.0 °C 30in /  1016.8hPa Calm     98% 0in /  0.0mm
09:28 33.4 °F /  0.8 °C 33.8 °F /  1.0 °C 30in /  1016.8hPa Calm   3.1mph /  5.0km/h 98% 0in /  0.0mm
09:42 33.8 °F /  1.0 °C 33.8 °F /  1.0 °C 30in /  1016.8hPa Calm   0.9mph /  1.4km/h 98% 0in /  0.0mm
09:51 33.8 °F /  1.0 °C 33.8 °F /  1.0 °C 30in /  1016.8hPa Calm   2.7mph /  4.3km/h 98% 0in /  0.0mm
09:56 33.8 °F /  1.0 °C 33.8 °F /  1.0 °C 30in /  1016.8hPa Calm   4mph /  6.4km/h 98% 0in /  0.0mm
10:01 34.2 °F /  1.2 °C 33.8 °F /  1.0 °C 30in /  1016.8hPa Calm   4mph /  6.4km/h 98% 0in /  0.0mm
10:09 34.2 °F /  1.2 °C 33.8 °F /  1.0 °C 30in /  1016.8hPa Calm   1.1mph /  1.8km/h 98% 0in /  0.0mm
10:20 34.2 °F /  1.2 °C 33.8 °F /  1.0 °C 30in /  1016.8hPa ENE 2.7mph /  4.3km/h 2.9mph /  4.7km/h 98% 0in /  0.0mm
10:30 34.2 °F /  1.2 °C 33.8 °F /  1.0 °C 30in /  1016.8hPa Calm   2.9mph /  4.7km/h 98% 0in /  0.0mm
10:50 35.6 °F /  2.0 °C 35.6 °F /  2.0 °C 30.1in /  1018.2hPa Calm   3.1mph /  5.0km/h 98% 0in /  0.0mm
10:58 35.6 °F /  2.0 °C 35.6 °F /  2.0 °C 30.1in /  1018.2hPa Calm   2mph /  3.2km/h 98% 0in /  0.0mm
11:12 35.6 °F /  2.0 °C 35.6 °F /  2.0 °C 30.1in /  1018.2hPa Calm   3.4mph /  5.5km/h 98% 0in /  0.0mm
11:18 35.6 °F /  2.0 °C 35.6 °F /  2.0 °C 30.1in /  1018.2hPa Calm   3.1mph /  5.0km/h 98% 0in /  0.0mm
11:27 35.6 °F /  2.0 °C 35.6 °F /  2.0 °C 30.1in /  1018.2hPa Calm   3.4mph /  5.5km/h 98% 0in /  0.0mm
11:33 35.6 °F /  2.0 °C 35.6 °F /  2.0 °C 30.1in /  1018.2hPa East 2.7mph /  4.3km/h 2.7mph /  4.3km/h 98% 0in /  0.0mm
11:40 35.6 °F /  2.0 °C 35.6 °F /  2.0 °C 30.1in /  1018.2hPa East 2mph /  3.2km/h 3.8mph /  6.1km/h 98% 0in /  0.0mm
11:47 35.6 °F /  2.0 °C 35.6 °F /  2.0 °C 30.1in /  1018.2hPa Calm   2mph /  3.2km/h 98% 0in /  0.0mm
11:55 38.8 °F /  3.8 °C 39.2 °F /  4.0 °C 30.1in /  1018.2hPa Calm   4.9mph /  7.9km/h 98% 0in /  0.0mm
12:00 39 °F /  3.9 °C 39.2 °F /  4.0 °C 30in /  1016.8hPa Calm   4.9mph /  7.9km/h 98% 0in /  0.0mm
12:06 39.2 °F /  4.0 °C 39.2 °F /  4.0 °C 30in /  1016.8hPa ESE 4.3mph /  6.9km/h 4.7mph /  7.6km/h 98% 0in /  0.0mm
12:21 39.6 °F /  4.2 °C 39.2 °F /  4.0 °C 30in /  1016.8hPa Calm   5.6mph /  9.0km/h 98% 0in /  0.0mm
12:26 39.6 °F /  4.2 °C 39.2 °F /  4.0 °C 30.1in /  1018.2hPa ESE 2.9mph /  4.7km/h 4.7mph /  7.6km/h 98% 0in /  0.0mm
12:34 40.1 °F /  4.5 °C 39.2 °F /  4.0 °C 30.1in /  1018.2hPa SE 4.5mph /  7.2km/h 6mph /  9.7km/h 97% 0in /  0.0mm
12:44 40.3 °F /  4.6 °C 39.2 °F /  4.0 °C 30in /  1016.8hPa Calm   6mph /  9.7km/h 96% 0in /  0.0mm
12:53 40.6 °F /  4.8 °C 39.2 °F /  4.0 °C 30in /  1016.8hPa SE 2.7mph /  4.3km/h 4mph /  6.4km/h 96% 0in /  0.0mm
12:59 40.6 °F /  4.8 °C 39.2 °F /  4.0 °C 30in /  1016.8hPa Calm   5.4mph /  8.7km/h 95% 0in /  0.0mm
13:08 41 °F /  5.0 °C 41 °F /  5.0 °C 30in /  1016.8hPa SSE 3.1mph /  5.0km/h 3.1mph /  5.0km/h 95% 0in /  0.0mm
13:21 41.4 °F /  5.2 °C 41 °F /  5.0 °C 30in /  1016.8hPa Calm   4.9mph /  7.9km/h 95% 0in /  0.0mm
13:29 41.2 °F /  5.1 °C 39.2 °F /  4.0 °C 30in /  1016.8hPa Calm   5.4mph /  8.7km/h 93% 0in /  0.0mm
13:48 41.5 °F /  5.3 °C 39.2 °F /  4.0 °C 30in /  1016.8hPa Calm   4.3mph /  6.9km/h 91% 0in /  0.0mm
14:01 41.9 °F /  5.5 °C 41 °F /  5.0 °C 30in /  1016.8hPa South 2.9mph /  4.7km/h 5.4mph /  8.7km/h 91% 0in /  0.0mm
14:07 42.1 °F /  5.6 °C 39.2 °F /  4.0 °C 30in /  1016.8hPa Calm   5.8mph /  9.3km/h 90% 0in /  0.0mm
14:21 41.9 °F /  5.5 °C 39.2 °F /  4.0 °C 30in /  1016.8hPa Calm   7.6mph /  12.2km/h 88% 0in /  0.0mm
14:32 41.9 °F /  5.5 °C 39.2 °F /  4.0 °C 30in /  1016.1hPa South 3.8mph /  6.1km/h 5.6mph /  9.0km/h 88% 0in /  0.0mm
14:55 42.1 °F /  5.6 °C 39.2 °F /  4.0 °C 30in /  1016.8hPa South 3.8mph /  6.1km/h 6.5mph /  10.5km/h 87% 0in /  0.0mm
15:00 42.3 °F /  5.7 °C 39.2 °F /  4.0 °C 30in /  1016.8hPa Calm   6.5mph /  10.5km/h 88% 0in /  0.0mm
15:08 43 °F /  6.1 °C 39.2 °F /  4.0 °C 30in /  1016.8hPa SSE 2.2mph /  3.5km/h 5.6mph /  9.0km/h 87% 0in /  0.0mm
15:14 43.3 °F /  6.3 °C 39.2 °F /  4.0 °C 30in /  1016.8hPa Calm   4mph /  6.4km/h 86% 0in /  0.0mm
15:23 43.9 °F /  6.6 °C 41 °F /  5.0 °C 30in /  1016.8hPa SE 3.4mph /  5.5km/h 5.8mph /  9.3km/h 86% 0in /  0.0mm
15:38 44.2 °F /  6.8 °C 41 °F /  5.0 °C 30in /  1016.8hPa Calm   2.7mph /  4.3km/h 85% 0in /  0.0mm
15:43 44.4 °F /  6.9 °C 41 °F /  5.0 °C 30in /  1016.8hPa Calm   3.8mph /  6.1km/h 85% 0in /  0.0mm
15:56 43.9 °F /  6.6 °C 39.2 °F /  4.0 °C 30in /  1016.1hPa South 2.9mph /  4.7km/h 5.6mph /  9.0km/h 83% 0in /  0.0mm
16:03 43.5 °F /  6.4 °C 39.2 °F /  4.0 °C 30in /  1016.1hPa Calm   5.8mph /  9.3km/h 83% 0in /  0.0mm
16:13 43.2 °F /  6.2 °C 39.2 °F /  4.0 °C 30in /  1016.1hPa Calm   4.9mph /  7.9km/h 83% 0in /  0.0mm
16:21 42.6 °F /  5.9 °C 39.2 °F /  4.0 °C 30in /  1016.1hPa Calm   3.6mph /  5.8km/h 84% 0in /  0.0mm
16:32 42.6 °F /  5.9 °C 39.2 °F /  4.0 °C 30in /  1016.1hPa Calm   3.6mph /  5.8km/h 84% 0in /  0.0mm
16:40 42.6 °F /  5.9 °C 39.2 °F /  4.0 °C 30in /  1016.1hPa Calm   3.1mph /  5.0km/h 84% 0in /  0.0mm
16:58 41.5 °F /  5.3 °C 37.4 °F /  3.0 °C 30in /  1016.8hPa South 0.9mph /  1.4km/h 2.9mph /  4.7km/h 86% 0in /  0.0mm
17:05 40.5 °F /  4.7 °C 37.4 °F /  3.0 °C 30in /  1016.8hPa Calm   2.9mph /  4.7km/h 87% 0in /  0.0mm
17:10 40.5 °F /  4.7 °C 37.4 °F /  3.0 °C 30in /  1016.8hPa Calm   0.9mph /  1.4km/h 87% 0in /  0.0mm
17:16 40.5 °F /  4.7 °C 37.4 °F /  3.0 °C 30in /  1016.8hPa Calm     87% 0in /  0.0mm
17:29 39.2 °F /  4.0 °C 35.6 °F /  2.0 °C 30in /  1016.1hPa Calm     88% 0in /  0.0mm
17:39 38.8 °F /  3.8 °C 35.6 °F /  2.0 °C 30in /  1016.1hPa Calm     89% 0in /  0.0mm
17:45 38.8 °F /  3.8 °C 35.6 °F /  2.0 °C 30in /  1016.8hPa Calm     90% 0in /  0.0mm
17:50 38.7 °F /  3.7 °C 35.6 °F /  2.0 °C 30in /  1016.8hPa Calm     90% 0in /  0.0mm
18:07 38.5 °F /  3.6 °C 37.4 °F /  3.0 °C 30in /  1016.8hPa Calm   4.3mph /  6.9km/h 92% 0in /  0.0mm
18:15 38.7 °F /  3.7 °C 37.4 °F /  3.0 °C 30in /  1016.8hPa Calm   4mph /  6.4km/h 93% 0in /  0.0mm
18:24 38.8 °F /  3.8 °C 37.4 °F /  3.0 °C 30in /  1016.8hPa SSW 1.3mph /  2.1km/h 3.6mph /  5.8km/h 94% 0in /  0.0mm
18:35 39.2 °F /  4.0 °C 37.4 °F /  3.0 °C 30in /  1016.8hPa Calm   2.7mph /  4.3km/h 94% 0in /  0.0mm
18:41 39.4 °F /  4.1 °C 37.4 °F /  3.0 °C 30in /  1016.8hPa Calm   3.6mph /  5.8km/h 94% 0in /  0.0mm
19:06 39.7 °F /  4.3 °C 37.4 °F /  3.0 °C 30in /  1016.8hPa Calm   3.1mph /  5.0km/h 94% 0in /  0.0mm
19:12 39.9 °F /  4.4 °C 37.4 °F /  3.0 °C 30in /  1016.8hPa Calm   2.9mph /  4.7km/h 94% 0in /  0.0mm
19:27 40.1 °F /  4.5 °C 39.2 °F /  4.0 °C 30in /  1016.8hPa South 2.9mph /  4.7km/h 4.3mph /  6.9km/h 94% 0in /  0.0mm
19:33 40.3 °F /  4.6 °C 39.2 °F /  4.0 °C 30in /  1016.8hPa Calm   3.8mph /  6.1km/h 94% 0in /  0.0mm
19:42 40.3 °F /  4.6 °C 39.2 °F /  4.0 °C 30in /  1016.8hPa Calm   3.1mph /  5.0km/h 94% 0in /  0.0mm
19:56 39.9 °F /  4.4 °C 37.4 °F /  3.0 °C 30in /  1016.8hPa Calm   3.8mph /  6.1km/h 94% 0in /  0.0mm
20:02 39.7 °F /  4.3 °C 37.4 °F /  3.0 °C 30in /  1016.8hPa Calm   2.7mph /  4.3km/h 94% 0in /  0.0mm
20:15 38.7 °F /  3.7 °C 37.4 °F /  3.0 °C 30in /  1016.1hPa Calm     93% 0in /  0.0mm
20:23 37.9 °F /  3.3 °C 35.6 °F /  2.0 °C 30in /  1016.1hPa Calm     92% 0in /  0.0mm
20:33 37.2 °F /  2.9 °C 35.6 °F /  2.0 °C 30in /  1016.8hPa Calm     92% 0in /  0.0mm
20:40 36.9 °F /  2.7 °C 35.6 °F /  2.0 °C 30in /  1016.8hPa Calm   2.5mph /  4.0km/h 93% 0in /  0.0mm
20:52 36.1 °F /  2.3 °C 35.6 °F /  2.0 °C 30in /  1016.8hPa Calm     93% 0in /  0.0mm
20:59 35.6 °F /  2.0 °C 33.8 °F /  1.0 °C 30in /  1016.1hPa Calm     93% 0in /  0.0mm
21:07 35.8 °F /  2.1 °C 33.8 °F /  1.0 °C 30in /  1016.1hPa Calm     94% 0in /  0.0mm
21:15 35.6 °F /  2.0 °C 35.6 °F /  2.0 °C 30in /  1016.8hPa Calm   2.7mph /  4.3km/h 95% 0in /  0.0mm
21:24 35.4 °F /  1.9 °C 35.6 °F /  2.0 °C 30in /  1016.8hPa South 1.3mph /  2.1km/h 3.8mph /  6.1km/h 96% 0in /  0.0mm
21:32 35.2 °F /  1.8 °C 33.8 °F /  1.0 °C 30in /  1016.8hPa Calm   2.9mph /  4.7km/h 97% 0in /  0.0mm
21:43 35.1 °F /  1.7 °C 33.8 °F /  1.0 °C 30in /  1016.8hPa Calm     97% 0in /  0.0mm
21:48 34.9 °F /  1.6 °C 33.8 °F /  1.0 °C 30in /  1016.8hPa Calm     97% 0in /  0.0mm
21:54 34.9 °F /  1.6 °C 33.8 °F /  1.0 °C 30in /  1016.8hPa Calm     97% 0in /  0.0mm
22:00 34.7 °F /  1.5 °C 33.8 °F /  1.0 °C 30in /  1016.1hPa Calm     97% 0in /  0.0mm
22:08 34.9 °F /  1.6 °C 35.6 °F /  2.0 °C 30in /  1016.1hPa Calm   2.7mph /  4.3km/h 98% 0in /  0.0mm
22:26 34 °F /  1.1 °C 33.8 °F /  1.0 °C 30in /  1016.8hPa Calm     97% 0in /  0.0mm
22:31 33.6 °F /  0.9 °C 33.8 °F /  1.0 °C 30in /  1016.8hPa Calm     98% 0in /  0.0mm
22:39 33.3 °F /  0.7 °C 33.8 °F /  1.0 °C 30in /  1016.8hPa Calm     98% 0in /  0.0mm
22:44 33.3 °F /  0.7 °C 33.8 °F /  1.0 °C 30in /  1016.8hPa Calm   2.7mph /  4.3km/h 98% 0in /  0.0mm
22:51 33.4 °F /  0.8 °C 33.8 °F /  1.0 °C 30in /  1016.8hPa Calm   2.9mph /  4.7km/h 98% 0in /  0.0mm
23:08 33.4 °F /  0.8 °C 33.8 °F /  1.0 °C 30in /  1016.8hPa Calm   0.9mph /  1.4km/h 98% 0in /  0.0mm
23:17 33.6 °F /  0.9 °C 33.8 °F /  1.0 °C 30in /  1016.1hPa Calm   2.7mph /  4.3km/h 98% 0in /  0.0mm
23:23 33.8 °F /  1.0 °C 33.8 °F /  1.0 °C 30in /  1016.1hPa Calm     98% 0in /  0.0mm
23:31 33.8 °F /  1.0 °C 33.8 °F /  1.0 °C 30in /  1016.8hPa West 2.9mph /  4.7km/h 4mph /  6.4km/h 98% 0in /  0.0mm
23:37 33.8 °F /  1.0 °C 33.8 °F /  1.0 °C 30in /  1016.8hPa Calm   4.7mph /  7.6km/h 98% 0in /  0.0mm
23:47 33.6 °F /  0.9 °C 33.8 °F /  1.0 °C 30in /  1016.8hPa Calm   4.3mph /  6.9km/h 98% 0in /  0.0mm
23:57 32.7 °F /  0.4 °C 33.8 °F /  1.0 °C 30in /  1016.8hPa Calm     98% 0in /  0.0mm
Données Historique de Météo Turbie

Mise a jour : 21/05/2018 16:34:12
Généré par Cumulus 1.9.4 (1099)